Geneseo, Illinois
Current Conditions -  °F | °C
As of 5:52 PM on Wednesday 22 Oct 2014 (Local Time) from KMLI Reporting Station
Clear Clear  
Wind Chill: 55°   Ceiling: Unl
Heat Index: 55°   Visibility: 10mi
Dew Point: 37°   Wind: 8mph
Humidity: 51%   Direction: 130°SE
Pressure: 30.2"   Gusts: NA
Location:  41.45°N, 90.16°W
Report Text: KMLI 222252Z 13007KT 10SM CLR 13/03 A3020 RMK AO2 SLP232 T01280028
Loading
Personal Weather Stations






























Interactive Weather Map
Tropical Storm Tracking
New forecast layout! Learn more

10-Day Weather Forecast

Advertisements
Track Severe Weather on mobile